createdAt,value
2019-03-28T00:00:37.305Z,13.30
2019-03-28T00:03:05.751Z,11.73
2019-03-28T00:05:34.286Z,14.67
2019-03-28T00:08:03.236Z,11.87
2019-03-28T00:10:31.763Z,12.67
2019-03-28T00:13:00.228Z,12.53
2019-03-28T00:15:28.797Z,13.17
2019-03-28T00:17:57.244Z,13.07
2019-03-28T00:20:25.708Z,12.07
2019-03-28T00:23:11.804Z,11.83
2019-03-28T00:25:40.508Z,12.93
2019-03-28T00:28:08.961Z,12.80
2019-03-28T00:30:37.500Z,12.77
2019-03-28T00:33:05.941Z,11.00
2019-03-28T00:35:34.429Z,12.30
2019-03-28T00:38:02.884Z,11.83
2019-03-28T00:40:31.331Z,13.70
2019-03-28T00:43:00.295Z,12.33
2019-03-28T00:45:28.873Z,13.00
2019-03-28T00:47:57.335Z,12.47
2019-03-28T00:50:25.804Z,12.70
2019-03-28T00:52:54.272Z,11.40
2019-03-28T00:55:22.724Z,12.73
2019-03-28T00:57:51.177Z,12.83
2019-03-28T01:00:20.398Z,13.40
2019-03-28T01:02:48.865Z,11.20
2019-03-28T01:05:17.410Z,12.27
2019-03-28T01:07:45.846Z,11.43
2019-03-28T01:10:14.648Z,12.27
2019-03-28T01:12:43.104Z,12.37
2019-03-28T01:15:11.696Z,13.23
2019-03-28T01:17:40.136Z,11.77
2019-03-28T01:20:09.205Z,13.57
2019-03-28T01:22:37.659Z,14.10
2019-03-28T01:25:06.246Z,13.47
2019-03-28T01:27:34.711Z,15.07
2019-03-28T01:30:03.315Z,14.87
2019-03-28T01:32:31.773Z,15.00
2019-03-28T01:35:00.195Z,14.93
2019-03-28T01:37:29.276Z,15.90
2019-03-28T01:39:57.984Z,17.70
2019-03-28T01:42:27.330Z,16.03
2019-03-28T01:44:55.815Z,15.73
2019-03-28T01:47:24.245Z,16.77
2019-03-28T01:49:52.727Z,18.40
2019-03-28T01:52:21.416Z,16.87
2019-03-28T01:54:50.005Z,18.17
2019-03-28T01:57:18.455Z,19.53
2019-03-28T01:59:46.902Z,18.10
2019-03-28T02:02:15.364Z,17.63
2019-03-28T02:04:43.821Z,21.17
2019-03-28T02:07:12.251Z,19.53
2019-03-28T02:09:40.884Z,18.17
2019-03-28T02:12:09.338Z,19.37
2019-03-28T02:14:38.318Z,19.50
2019-03-28T02:17:06.827Z,20.03
2019-03-28T02:19:35.295Z,21.87
2019-03-28T02:22:03.733Z,17.67
2019-03-28T02:24:32.175Z,18.67
2019-03-28T02:27:00.662Z,19.27
2019-03-28T02:29:29.156Z,20.00
2019-03-28T02:31:57.602Z,18.83
2019-03-28T02:34:26.117Z,19.57
2019-03-28T02:36:54.550Z,18.80
2019-03-28T02:39:23.008Z,18.87
2019-03-28T02:41:51.534Z,18.87
2019-03-28T02:44:20.031Z,19.77
2019-03-28T02:46:48.480Z,18.50
2019-03-28T02:49:16.941Z,18.50
2019-03-28T02:51:45.398Z,19.07
2019-03-28T02:54:13.909Z,20.00
2019-03-28T02:56:42.409Z,19.77
2019-03-28T02:59:10.877Z,22.03
2019-03-28T03:01:40.472Z,20.93
2019-03-28T03:04:09.136Z,20.83
2019-03-28T03:06:37.670Z,23.90
2019-03-28T03:09:09.129Z,19.83
2019-03-28T03:11:37.825Z,21.50
2019-03-28T03:14:06.261Z,21.77
2019-03-28T03:16:34.710Z,22.37
2019-03-28T03:19:03.150Z,21.13
2019-03-28T03:21:31.617Z,24.47
2019-03-28T03:24:00.073Z,23.63
2019-03-28T03:26:28.645Z,22.60
2019-03-28T03:28:57.528Z,24.87
2019-03-28T03:31:25.978Z,22.73
2019-03-28T03:33:54.489Z,25.37
2019-03-28T03:36:23.029Z,25.10
2019-03-28T03:38:51.518Z,24.10
2019-03-28T03:41:19.973Z,25.27
2019-03-28T03:43:49.681Z,27.23
2019-03-28T03:46:18.289Z,26.93
2019-03-28T03:48:46.771Z,26.50
2019-03-28T03:51:15.214Z,27.47
2019-03-28T03:53:43.672Z,27.20
2019-03-28T03:56:12.116Z,24.73
2019-03-28T03:58:40.592Z,25.43
2019-03-28T04:01:09.076Z,26.83
2019-03-28T04:03:37.547Z,25.83
2019-03-28T04:06:05.970Z,26.00
2019-03-28T04:08:34.427Z,25.93
2019-03-28T04:11:02.895Z,27.83
2019-03-28T04:13:31.427Z,25.27
2019-03-28T04:15:59.981Z,27.30
2019-03-28T04:18:28.488Z,27.13
2019-03-28T04:20:57.659Z,23.90
2019-03-28T04:23:26.125Z,25.90
2019-03-28T04:25:54.571Z,25.37
2019-03-28T04:28:31.561Z,25.30
2019-03-28T04:30:53.197Z,25.03
2019-03-28T04:33:21.645Z,25.47
2019-03-28T04:35:50.104Z,26.73
2019-03-28T04:38:18.583Z,24.47
2019-03-28T04:40:47.089Z,23.83
2019-03-28T04:43:15.543Z,24.07
2019-03-28T04:45:44.069Z,23.90
2019-03-28T04:48:12.516Z,25.13
2019-03-28T04:50:40.969Z,24.80
2019-03-28T04:53:13.692Z,27.53
2019-03-28T04:55:47.204Z,22.80
2019-03-28T04:58:14.547Z,25.50
2019-03-28T05:00:42.996Z,23.23
2019-03-28T05:03:11.443Z,23.60
2019-03-28T05:05:39.910Z,24.20
2019-03-28T05:08:08.421Z,25.87
2019-03-28T05:10:37.067Z,23.60
2019-03-28T05:13:05.505Z,24.53
2019-03-28T05:15:34.186Z,23.03
2019-03-28T05:18:02.648Z,22.17
2019-03-28T05:20:31.094Z,22.90
2019-03-28T05:22:59.518Z,23.13
2019-03-28T05:25:28.059Z,20.73
2019-03-28T05:27:56.501Z,21.67
2019-03-28T05:30:24.943Z,21.23
2019-03-28T05:32:53.394Z,20.17
2019-03-28T05:35:21.863Z,19.67
2019-03-28T05:37:50.313Z,20.07
2019-03-28T05:40:18.789Z,21.23
2019-03-28T05:42:47.503Z,20.30
2019-03-28T05:45:15.955Z,18.70
2019-03-28T05:47:44.456Z,19.63
2019-03-28T05:50:12.892Z,19.53
2019-03-28T05:52:41.354Z,20.37
2019-03-28T05:55:09.849Z,18.40
2019-03-28T05:57:38.311Z,18.30
2019-03-28T06:00:07.388Z,17.70
2019-03-28T06:02:35.848Z,18.03
2019-03-28T06:05:06.335Z,17.07
2019-03-28T06:07:34.950Z,17.20
2019-03-28T06:10:05.632Z,19.63
2019-03-28T06:12:34.054Z,17.50
2019-03-28T06:15:02.502Z,18.77
2019-03-28T06:17:30.991Z,18.83
2019-03-28T06:19:59.435Z,18.27
2019-03-28T06:22:27.905Z,18.53
2019-03-28T06:24:56.441Z,19.00
2019-03-28T06:27:24.971Z,17.03
2019-03-28T06:29:53.444Z,18.70
2019-03-28T06:32:21.865Z,16.63
2019-03-28T06:34:50.334Z,17.60
2019-03-28T06:37:18.772Z,18.33
2019-03-28T06:39:47.225Z,19.23
2019-03-28T06:42:15.653Z,17.40
2019-03-28T06:44:44.124Z,17.53
2019-03-28T06:47:12.618Z,16.70
2019-03-28T06:49:41.069Z,16.97
2019-03-28T06:52:09.500Z,15.53
2019-03-28T06:54:37.945Z,16.10
2019-03-28T06:57:06.393Z,15.47
2019-03-28T06:59:37.671Z,16.70
2019-03-28T07:02:05.002Z,15.73
2019-03-28T07:04:33.443Z,15.20
2019-03-28T07:07:01.909Z,13.80
2019-03-28T07:09:30.348Z,15.40
2019-03-28T07:11:58.797Z,14.13
2019-03-28T07:14:28.345Z,13.83
2019-03-28T07:16:57.881Z,13.23
2019-03-28T07:19:28.072Z,13.93
2019-03-28T07:21:56.614Z,13.90
2019-03-28T07:24:25.048Z,14.53
2019-03-28T07:26:53.519Z,12.67
2019-03-28T07:29:21.945Z,12.90
2019-03-28T07:31:50.392Z,14.10
2019-03-28T07:34:18.828Z,14.03
2019-03-28T07:36:47.289Z,12.73
2019-03-28T07:39:18.867Z,13.03
2019-03-28T07:41:45.905Z,12.93
2019-03-28T07:44:14.362Z,12.00
2019-03-28T07:46:42.812Z,11.33
2019-03-28T07:49:11.325Z,10.50
2019-03-28T07:51:39.765Z,9.17
2019-03-28T07:54:08.209Z,9.40
2019-03-28T07:56:36.651Z,9.73
2019-03-28T07:59:05.103Z,10.03
2019-03-28T08:01:33.642Z,9.43
2019-03-28T08:04:02.249Z,8.37
2019-03-28T08:06:30.692Z,8.07
2019-03-28T08:08:59.131Z,8.77
2019-03-28T08:11:28.304Z,8.40
2019-03-28T08:13:56.863Z,8.27
2019-03-28T08:16:28.656Z,8.50
2019-03-28T08:18:55.485Z,6.80
2019-03-28T08:21:23.925Z,8.67
2019-03-28T08:23:52.349Z,8.67
2019-03-28T08:26:20.795Z,7.87
2019-03-28T08:28:49.241Z,7.67
2019-03-28T08:31:17.694Z,8.10
2019-03-28T08:33:46.634Z,8.10
2019-03-28T08:36:15.213Z,7.60
2019-03-28T08:38:45.198Z,7.00
2019-03-28T08:41:13.626Z,6.37
2019-03-28T08:43:42.711Z,6.53
2019-03-28T08:46:11.396Z,6.00
2019-03-28T08:48:39.839Z,6.70
2019-03-28T08:51:08.268Z,6.53
2019-03-28T08:53:36.721Z,6.30
2019-03-28T08:56:05.158Z,5.75
2019-03-28T08:58:33.594Z,7.00
2019-03-28T09:01:02.036Z,5.07
2019-03-28T09:03:30.486Z,5.73
2019-03-28T09:05:58.908Z,5.50
2019-03-28T09:08:28.280Z,4.87
2019-03-28T09:10:56.701Z,4.83
2019-03-28T09:13:25.177Z,4.57
2019-03-28T09:15:53.599Z,4.37
2019-03-28T09:18:22.044Z,4.67
2019-03-28T09:20:50.484Z,5.20
2019-03-28T09:23:18.943Z,4.10
2019-03-28T09:25:47.367Z,4.70
2019-03-28T09:28:15.809Z,4.33
2019-03-28T09:30:49.158Z,4.03
2019-03-28T09:33:14.430Z,4.53
2019-03-28T09:35:43.038Z,4.30
2019-03-28T09:38:11.582Z,4.50
2019-03-28T09:40:40.015Z,4.23
2019-03-28T09:43:08.467Z,4.27
2019-03-28T09:45:36.934Z,4.53
2019-03-28T09:48:05.456Z,4.40
2019-03-28T09:50:33.983Z,5.50
2019-03-28T09:53:02.482Z,5.70
2019-03-28T09:55:30.943Z,5.13
2019-03-28T09:57:59.379Z,5.23
2019-03-28T10:00:28.577Z,4.93
2019-03-28T10:02:57.088Z,5.37
2019-03-28T10:05:25.530Z,4.47
2019-03-28T10:07:53.988Z,4.20
2019-03-28T10:10:22.416Z,5.17
2019-03-28T10:12:50.861Z,4.17
2019-03-28T10:15:19.439Z,3.43
2019-03-28T10:17:47.898Z,3.63
2019-03-28T10:20:16.346Z,4.10
2019-03-28T10:22:44.795Z,4.80
2019-03-28T10:25:14.467Z,5.07
2019-03-28T10:27:43.200Z,4.63
2019-03-28T10:30:13.123Z,4.90
2019-03-28T10:32:41.588Z,5.07
2019-03-28T10:35:13.102Z,5.33
2019-03-28T10:37:41.546Z,5.83
2019-03-28T10:40:10.040Z,6.53
2019-03-28T10:42:38.510Z,6.03
2019-03-28T10:45:07.183Z,5.70
2019-03-28T10:47:35.636Z,6.63
2019-03-28T10:50:05.905Z,6.80
2019-03-28T10:52:34.341Z,6.33
2019-03-28T10:55:02.781Z,7.43
2019-03-28T10:57:32.136Z,6.30
2019-03-28T11:00:00.871Z,5.80
2019-03-28T11:02:29.413Z,6.53
2019-03-28T11:04:58.567Z,6.07
2019-03-28T11:07:27.004Z,6.47
2019-03-28T11:09:55.446Z,6.33
2019-03-28T11:12:23.884Z,6.57
2019-03-28T11:14:52.343Z,6.47
2019-03-28T11:17:21.781Z,6.77
2019-03-28T11:19:50.506Z,5.70
2019-03-28T11:22:18.940Z,5.77
2019-03-28T11:24:47.389Z,5.60
2019-03-28T11:27:15.814Z,6.57
2019-03-28T11:29:44.280Z,7.20
2019-03-28T11:32:12.722Z,6.53
2019-03-28T11:34:41.262Z,6.80
2019-03-28T11:37:19.884Z,7.37
2019-03-28T11:39:39.874Z,6.43
2019-03-28T11:42:08.463Z,7.70
2019-03-28T11:44:36.991Z,8.30
2019-03-28T11:47:05.438Z,8.37
2019-03-28T11:49:33.900Z,8.63
2019-03-28T11:52:02.334Z,8.00
2019-03-28T11:54:30.847Z,9.60
2019-03-28T11:56:59.547Z,8.53
2019-03-28T11:59:28.695Z,8.87
2019-03-28T12:02:02.941Z,10.73
2019-03-28T12:04:27.335Z,9.17
2019-03-28T12:06:55.792Z,8.63
2019-03-28T12:09:24.221Z,8.07
2019-03-28T12:11:53.133Z,6.30
2019-03-28T12:14:21.700Z,6.20
2019-03-28T12:16:50.170Z,6.17
2019-03-28T12:19:18.630Z,6.13
2019-03-28T12:21:47.152Z,6.03
2019-03-28T12:24:15.588Z,7.00
2019-03-28T12:26:44.060Z,6.23
2019-03-28T12:29:12.500Z,6.80
2019-03-28T12:31:41.037Z,7.23
2019-03-28T12:34:09.496Z,7.23
2019-03-28T12:36:37.943Z,6.73
2019-03-28T12:39:06.801Z,7.20
2019-03-28T12:41:35.312Z,6.07
2019-03-28T12:44:03.764Z,6.53
2019-03-28T12:46:32.202Z,6.07
2019-03-28T12:49:00.647Z,8.87
2019-03-28T12:51:29.120Z,9.90
2019-03-28T12:53:57.560Z,10.93
2019-03-28T12:56:26.452Z,11.03
2019-03-28T12:58:55.013Z,11.40
2019-03-28T13:01:24.500Z,10.97
2019-03-28T13:03:53.080Z,12.40
2019-03-28T13:06:21.545Z,13.20
2019-03-28T13:08:49.978Z,13.40
2019-03-28T13:11:19.562Z,14.10
2019-03-28T13:13:48.181Z,15.10
2019-03-28T13:16:16.641Z,13.53
2019-03-28T13:18:45.065Z,13.93
2019-03-28T13:21:14.176Z,13.37
2019-03-28T13:23:42.820Z,13.33
2019-03-28T13:26:11.285Z,12.83
2019-03-28T13:28:39.715Z,14.17
2019-03-28T13:31:08.165Z,15.27
2019-03-28T13:33:36.620Z,13.80
2019-03-28T13:36:05.069Z,12.70
2019-03-28T13:38:33.500Z,13.57
2019-03-28T13:41:01.991Z,13.60
2019-03-28T13:43:30.782Z,12.30
2019-03-28T13:45:59.470Z,13.00
2019-03-28T13:48:28.820Z,12.87
2019-03-28T13:50:57.290Z,12.70
2019-03-28T13:53:38.348Z,11.73
2019-03-28T13:55:55.901Z,11.93
2019-03-28T13:58:24.351Z,12.57
2019-03-28T14:00:54.604Z,11.20
2019-03-28T14:03:23.000Z,11.73
2019-03-28T14:05:51.439Z,10.63
2019-03-28T14:08:19.918Z,10.03
2019-03-28T14:10:48.343Z,10.97
2019-03-28T14:13:16.793Z,10.80
2019-03-28T14:15:45.243Z,10.43
2019-03-28T14:18:13.703Z,10.97
2019-03-28T14:20:42.152Z,10.13
2019-03-28T14:23:10.611Z,9.37
2019-03-28T14:25:39.061Z,9.93
2019-03-28T14:28:07.523Z,9.00
2019-03-28T14:30:39.328Z,8.30
2019-03-28T14:33:11.637Z,9.37
2019-03-28T14:35:36.365Z,9.23
2019-03-28T14:38:04.827Z,9.60
2019-03-28T14:40:33.340Z,9.33
2019-03-28T14:43:01.884Z,8.57
2019-03-28T14:45:30.324Z,8.47
2019-03-28T14:47:59.105Z,9.27
2019-03-28T14:50:35.399Z,9.23
2019-03-28T14:53:04.133Z,8.50
2019-03-28T14:55:33.903Z,8.97
2019-03-28T14:58:03.688Z,9.43
2019-03-28T15:00:37.876Z,8.47
2019-03-28T15:03:06.430Z,8.83
2019-03-28T15:05:34.875Z,8.43
2019-03-28T15:08:03.395Z,7.23
2019-03-28T15:10:31.827Z,7.90
2019-03-28T15:13:00.332Z,8.17
2019-03-28T15:15:29.151Z,7.87
2019-03-28T15:17:57.601Z,8.17
2019-03-28T15:20:27.497Z,8.13
2019-03-28T15:22:56.124Z,9.43
2019-03-28T15:25:24.548Z,8.93
2019-03-28T15:27:53.000Z,8.33
2019-03-28T15:30:21.626Z,9.03
2019-03-28T15:32:50.081Z,10.07
2019-03-28T15:35:18.505Z,9.43
2019-03-28T15:37:47.447Z,10.77
2019-03-28T15:40:16.316Z,11.37
2019-03-28T15:42:44.778Z,12.03
2019-03-28T15:45:13.279Z,10.57
2019-03-28T15:47:41.752Z,10.43
2019-03-28T15:50:10.451Z,11.67
2019-03-28T15:52:38.916Z,10.73
2019-03-28T15:55:07.645Z,11.87
2019-03-28T15:57:36.325Z,11.53
2019-03-28T16:00:06.716Z,13.17
2019-03-28T16:02:35.175Z,12.57
2019-03-28T16:05:05.801Z,13.87
2019-03-28T16:07:34.264Z,14.97
2019-03-28T16:10:02.979Z,16.73
2019-03-28T16:12:31.432Z,11.83
2019-03-28T16:14:59.883Z,10.83
2019-03-28T16:17:29.272Z,11.37
2019-03-28T16:19:57.861Z,10.03
2019-03-28T16:22:26.642Z,11.47
2019-03-28T16:24:55.125Z,13.47
2019-03-28T16:27:23.556Z,10.97
2019-03-28T16:29:54.363Z,11.70
2019-03-28T16:32:22.215Z,16.40
2019-03-28T16:34:50.670Z,24.97
2019-03-28T16:37:19.128Z,18.47
2019-03-28T16:39:49.983Z,12.97
2019-03-28T16:42:17.771Z,11.20
2019-03-28T16:44:46.219Z,12.00
2019-03-28T16:47:14.679Z,12.27
2019-03-28T16:49:43.129Z,12.33
2019-03-28T16:52:11.586Z,12.70
2019-03-28T16:54:40.012Z,13.50
2019-03-28T16:57:08.473Z,13.27
2019-03-28T16:59:36.920Z,14.17
2019-03-28T17:02:05.358Z,14.60
2019-03-28T17:04:33.831Z,15.10
2019-03-28T17:07:02.807Z,14.50
2019-03-28T17:09:31.890Z,15.40
2019-03-28T17:12:00.338Z,14.50
2019-03-28T17:14:29.400Z,14.47
2019-03-28T17:16:57.822Z,14.77
2019-03-28T17:19:26.664Z,13.93
2019-03-28T17:21:55.089Z,14.17
2019-03-28T17:24:23.559Z,13.23
2019-03-28T17:26:51.984Z,14.13
2019-03-28T17:29:20.440Z,14.87
2019-03-28T17:31:48.865Z,14.03
2019-03-28T17:34:17.327Z,15.20
2019-03-28T17:36:45.776Z,13.33
2019-03-28T17:39:14.234Z,13.47
2019-03-28T17:41:42.657Z,14.27
2019-03-28T17:44:14.335Z,15.43
2019-03-28T17:46:41.317Z,12.87
2019-03-28T17:49:09.781Z,15.13
2019-03-28T17:51:40.506Z,13.47
2019-03-28T17:54:08.407Z,15.17
2019-03-28T17:56:36.832Z,14.77
2019-03-28T17:59:05.338Z,15.13
2019-03-28T18:01:33.809Z,15.07
2019-03-28T18:04:02.308Z,15.77
2019-03-28T18:06:30.872Z,16.30
2019-03-28T18:08:59.493Z,15.83
2019-03-28T18:11:27.962Z,16.00
2019-03-28T18:13:57.354Z,15.63
2019-03-28T18:16:26.049Z,16.20
2019-03-28T18:18:54.498Z,16.13
2019-03-28T18:21:22.987Z,17.43
2019-03-28T18:23:51.418Z,17.90
2019-03-28T18:26:19.871Z,15.93
2019-03-28T18:28:48.335Z,17.13
2019-03-28T18:31:16.809Z,15.83
2019-03-28T18:33:45.249Z,16.30
2019-03-28T18:36:13.781Z,17.03
2019-03-28T18:38:42.258Z,16.97
2019-03-28T18:41:10.721Z,16.57
2019-03-28T18:43:39.163Z,16.87
2019-03-28T18:46:07.629Z,17.17
2019-03-28T18:48:36.749Z,17.33
2019-03-28T18:51:05.395Z,17.07
2019-03-28T18:53:33.836Z,18.57
2019-03-28T18:56:02.294Z,18.50
2019-03-28T18:58:31.738Z,17.80
2019-03-28T19:01:00.452Z,17.70
2019-03-28T19:03:29.635Z,17.60
2019-03-28T19:05:58.095Z,19.23
2019-03-28T19:08:27.077Z,17.10
2019-03-28T19:10:56.095Z,17.53
2019-03-28T19:13:24.534Z,17.50
2019-03-28T19:15:52.978Z,17.33
2019-03-28T19:18:21.409Z,18.40
2019-03-28T19:20:49.898Z,16.67
2019-03-28T19:23:18.383Z,17.20
2019-03-28T19:25:47.267Z,16.63
2019-03-28T19:28:27.917Z,16.80
2019-03-28T19:30:46.067Z,17.43
2019-03-28T19:33:14.902Z,17.80
2019-03-28T19:35:44.350Z,15.73
2019-03-28T19:38:13.313Z,15.77
2019-03-28T19:40:41.763Z,17.13
2019-03-28T19:43:20.507Z,17.03
2019-03-28T19:45:40.424Z,17.60
2019-03-28T19:48:09.951Z,17.07
2019-03-28T19:50:38.432Z,17.60
2019-03-28T19:53:06.971Z,17.87
2019-03-28T19:55:35.401Z,17.07
2019-03-28T19:58:04.853Z,16.40
2019-03-28T20:00:33.669Z,17.50
2019-03-28T20:03:02.515Z,17.10
2019-03-28T20:05:31.167Z,17.87
2019-03-28T20:07:59.831Z,18.53
2019-03-28T20:10:28.469Z,17.47
2019-03-28T20:12:57.674Z,18.47
2019-03-28T20:15:26.197Z,19.33
2019-03-28T20:17:54.660Z,20.17
2019-03-28T20:20:23.213Z,19.40
2019-03-28T20:22:51.710Z,19.70
2019-03-28T20:25:20.259Z,19.40
2019-03-28T20:27:49.731Z,20.07
2019-03-28T20:30:19.171Z,19.43
2019-03-28T20:32:47.671Z,20.80
2019-03-28T20:35:16.274Z,15.53
2019-03-28T20:37:44.744Z,14.13
2019-03-28T20:40:14.619Z,16.20
2019-03-28T20:42:43.159Z,16.83
2019-03-28T20:45:11.944Z,18.97
2019-03-28T20:47:40.403Z,19.63
2019-03-28T20:50:09.499Z,20.83
2019-03-28T20:52:37.936Z,19.70
2019-03-28T20:55:07.324Z,20.73
2019-03-28T20:57:36.034Z,23.18
2019-03-28T21:00:08.506Z,22.83
2019-03-28T21:02:36.664Z,25.00
2019-03-28T21:05:06.954Z,23.33
2019-03-28T21:07:35.396Z,23.60
2019-03-28T21:10:05.895Z,21.87
2019-03-28T21:12:34.330Z,22.47
2019-03-28T21:15:02.777Z,22.47
2019-03-28T21:17:32.257Z,23.00
2019-03-28T21:20:01.260Z,23.07
2019-03-28T21:22:29.921Z,24.43
2019-03-28T21:24:58.369Z,24.27
2019-03-28T21:27:26.801Z,23.80
2019-03-28T21:29:55.241Z,24.40
2019-03-28T21:32:23.689Z,23.23
2019-03-28T21:34:52.158Z,22.63
2019-03-28T21:37:20.591Z,24.50
2019-03-28T21:39:49.056Z,23.00
2019-03-28T21:42:17.501Z,23.80
2019-03-28T21:44:46.072Z,24.77
2019-03-28T21:47:14.497Z,23.63
2019-03-28T21:49:42.972Z,25.50
2019-03-28T21:52:11.398Z,23.97
2019-03-28T21:54:39.858Z,24.80
2019-03-28T21:57:08.299Z,26.40
2019-03-28T21:59:36.762Z,27.23
2019-03-28T22:02:05.195Z,26.40
2019-03-28T22:04:34.971Z,27.27
2019-03-28T22:07:03.470Z,25.40
2019-03-28T22:09:31.931Z,26.07
2019-03-28T22:12:00.839Z,23.97
2019-03-28T22:14:30.066Z,24.37
2019-03-28T22:16:58.493Z,20.57
2019-03-28T22:19:26.941Z,21.87
2019-03-28T22:21:55.393Z,18.87
2019-03-28T22:24:23.838Z,16.03
2019-03-28T22:26:52.270Z,16.83
2019-03-28T22:29:20.908Z,16.83
2019-03-28T22:31:49.535Z,14.87
2019-03-28T22:34:17.980Z,16.07
2019-03-28T22:36:56.522Z,16.67
2019-03-28T22:39:16.572Z,15.93
2019-03-28T22:41:45.010Z,14.47
2019-03-28T22:44:14.353Z,14.90
2019-03-28T22:46:42.891Z,15.43
2019-03-28T22:49:11.320Z,14.97
2019-03-28T22:51:39.769Z,15.77
2019-03-28T22:54:08.212Z,14.07
2019-03-28T22:56:36.674Z,14.97
2019-03-28T22:59:05.115Z,15.37
2019-03-28T23:01:33.734Z,15.60
2019-03-28T23:04:02.164Z,15.17
2019-03-28T23:06:30.613Z,15.90
2019-03-28T23:08:59.110Z,16.60
2019-03-28T23:11:27.696Z,15.87
2019-03-28T23:13:56.144Z,15.30
2019-03-28T23:16:24.584Z,14.53
2019-03-28T23:18:53.056Z,16.33
2019-03-28T23:21:21.489Z,16.77
2019-03-28T23:23:49.953Z,18.20
2019-03-28T23:26:18.389Z,18.53
2019-03-28T23:28:46.840Z,18.13
2019-03-28T23:31:15.291Z,17.60
2019-03-28T23:33:43.735Z,20.90
2019-03-28T23:36:12.179Z,16.93
2019-03-28T23:38:40.659Z,17.80
2019-03-28T23:41:09.275Z,18.43
2019-03-28T23:43:37.725Z,19.43
2019-03-28T23:46:06.167Z,17.90
2019-03-28T23:48:34.623Z,18.10
2019-03-28T23:51:03.071Z,19.63
2019-03-28T23:53:31.523Z,19.80
2019-03-28T23:56:00.283Z,21.60
2019-03-28T23:58:28.728Z,22.73
